Torm Horizon — OYNM2 — position and weather

sailwx.info

Track history (hours):
 
Tides and Currents Weather Stations Pressure Air Temp Water Temp Dewpoint Dewpoint Depression Visibility Wind Speed Wind Dir Waves Ship Positions

Torm Horizon

Last reported at 2018-Mar-07 21:38 UTC. Time now 2018-Apr-26 11:24 UTC.
Position N 31°20' E 032°22'.
Warning: this ship's position is 49 days out of date.

Length 183 m; draft 12.1 m.

Type: Ship (hazmat cat B). MMSI: 220566000.

Date/timePositionNaut miles runAvg speedWind from/ knotsBaromVisibWave heightAir tempDewpointWater temp
2018-Mar-07 21:38N 31°20' E 032°22'2 8.9
2018-Mar-07 21:23N 31°22' E 032°23'2 4.0
2018-Mar-07 20:54N 31°22' E 032°21'2 4.6
2018-Mar-07 20:30N 31°23' E 032°19'0 0.1
2018-Mar-07 19:57N 31°23' E 032°19'0 0.1
2018-Mar-07 19:27N 31°23' E 032°19'0 0.0
2018-Mar-07 17:39N 31°23' E 032°19'0 0.0
2018-Mar-07 17:30N 31°23' E 032°19'0 0.0
2018-Mar-07 16:51N 31°23' E 032°19'0 0.0
2018-Mar-07 16:30N 31°23' E 032°19'0 0.0
2018-Mar-07 15:57N 31°23' E 032°19'0 0.0
2018-Mar-07 15:15N 31°23' E 032°19'0 0.0
2018-Mar-07 14:57N 31°23' E 032°19'0 0.0
2018-Mar-07 14:27N 31°23' E 032°19'0 0.0
2018-Mar-07 14:00N 31°23' E 032°19'0 0.0
2018-Mar-07 13:30N 31°23' E 032°19'0 0.1
2018-Mar-07 13:00N 31°23' E 032°19'0 0.1
2018-Mar-07 12:27N 31°23' E 032°19'0 0.0
2018-Mar-07 10:33N 31°23' E 032°19'0 0.0
2018-Mar-07 10:30N 31°23' E 032°19'48110.3
2018-Mar-05 11:36N 37°25' E 025°55'110.8
2018-Mar-05 11:30N 37°26' E 025°54'4 9.0
2018-Mar-05 11:00N 37°30' E 025°52'610.6
2018-Mar-05 10:28N 37°36' E 025°52'244 7.7
2018-Mar-04 03:01N 40°56' E 028°52'0 5.7
2018-Mar-04 03:00N 40°56' E 028°52'1 1.4
2018-Mar-04 02:30N 40°56' E 028°52'2 1.9
2018-Mar-04 01:21N 40°57' E 028°55'2 4.4
2018-Mar-04 01:00N 40°58' E 028°57'  
2018-Mar-01 17:08N 44°27' E 037°16'2 9.7
2018-Mar-01 16:55N 44°28' E 037°19'4 9.6
2018-Mar-01 16:31N 44°29' E 037°25'5 9.2
2018-Mar-01 16:00N 44°30' E 037°31'5 9.0
2018-Mar-01 15:30N 44°32' E 037°37'4 8.7
2018-Mar-01 15:01N 44°33' E 037°42'4 8.8
2018-Mar-01 14:31N 44°36' E 037°47'5 9.1
2018-Mar-01 14:01N 44°40' E 037°50'4 7.3
2018-Mar-01 13:31N 44°43' E 037°48'1 1.7
2018-Mar-01 12:59N 44°44' E 037°47'0 0.0
2018-Mar-01 12:29N 44°44' E 037°47'0 0.0
2018-Mar-01 11:59N 44°44' E 037°47'0 0.0
2018-Mar-01 11:29N 44°44' E 037°47'0 0.0
2018-Mar-01 10:59N 44°44' E 037°47'0 0.0
2018-Mar-01 10:26N 44°44' E 037°47'0 0.0
2018-Mar-01 09:59N 44°44' E 037°47'0 0.0
2018-Mar-01 09:28N 44°44' E 037°47'0 0.0
2018-Mar-01 08:58N 44°44' E 037°47'0 0.0
2018-Mar-01 08:28N 44°44' E 037°47'0 0.0
2018-Mar-01 07:58N 44°44' E 037°47'0 0.0
2018-Mar-01 07:28N 44°44' E 037°47'0 0.0
2018-Mar-01 06:58N 44°44' E 037°47'0 0.0
2018-Mar-01 06:28N 44°44' E 037°47'0 0.0
2018-Mar-01 05:58N 44°44' E 037°47'  
2018-Feb-26 03:45N 44°44' E 037°47'0 0.0
2018-Feb-26 03:30N 44°44' E 037°47'0 0.0
2018-Feb-26 03:00N 44°44' E 037°47'1 1.7
2018-Feb-26 02:30N 44°43' E 037°48'3 6.7
2018-Feb-26 02:00N 44°40' E 037°50'3 6.4
2018-Feb-26 01:30N 44°37' E 037°51'3 6.3
2018-Feb-26 01:00N 44°35' E 037°54'2 3.2
2018-Feb-26 00:30N 44°34' E 037°56'0 0.0
2018-Feb-26 00:00N 44°34' E 037°56'0 0.1
2018-Feb-25 23:30N 44°34' E 037°56'0 0.1
2018-Feb-25 22:54N 44°34' E 037°56'0 0.0
2018-Feb-25 22:27N 44°34' E 037°56'0 0.1
2018-Feb-25 22:00N 44°34' E 037°56'  
Track history (hours):
 
Tides and Currents Weather Stations Pressure Air Temp Water Temp Dewpoint Dewpoint Depression Visibility Wind Speed Wind Dir Waves Ship Positions

Torm Horizon

Last reported at 2018-Mar-07 21:38 UTC. Time now 2018-Apr-26 11:24 UTC.
Position N 31°20' E 032°22'.
Warning: this ship's position is 49 days out of date.

Length 183 m; draft 12.1 m.

Type: Ship (hazmat cat B). MMSI: 220566000.

Date/timePositionNaut miles runAvg speedWind from/ knotsBaromVisibWave heightAir tempDewpointWater temp
2018-Mar-07 21:38N 31°20' E 032°22'2 8.9
2018-Mar-07 21:23N 31°22' E 032°23'2 4.0
2018-Mar-07 20:54N 31°22' E 032°21'2 4.6
2018-Mar-07 20:30N 31°23' E 032°19'0 0.1
2018-Mar-07 19:57N 31°23' E 032°19'0 0.1
2018-Mar-07 19:27N 31°23' E 032°19'0 0.0
2018-Mar-07 17:39N 31°23' E 032°19'0 0.0
2018-Mar-07 17:30N 31°23' E 032°19'0 0.0
2018-Mar-07 16:51N 31°23' E 032°19'0 0.0
2018-Mar-07 16:30N 31°23' E 032°19'0 0.0
2018-Mar-07 15:57N 31°23' E 032°19'0 0.0
2018-Mar-07 15:15N 31°23' E 032°19'0 0.0
2018-Mar-07 14:57N 31°23' E 032°19'0 0.0
2018-Mar-07 14:27N 31°23' E 032°19'0 0.0
2018-Mar-07 14:00N 31°23' E 032°19'0 0.0
2018-Mar-07 13:30N 31°23' E 032°19'0 0.1
2018-Mar-07 13:00N 31°23' E 032°19'0 0.1
2018-Mar-07 12:27N 31°23' E 032°19'0 0.0
2018-Mar-07 10:33N 31°23' E 032°19'0 0.0
2018-Mar-07 10:30N 31°23' E 032°19'48110.3
2018-Mar-05 11:36N 37°25' E 025°55'110.8
2018-Mar-05 11:30N 37°26' E 025°54'4 9.0
2018-Mar-05 11:00N 37°30' E 025°52'610.6
2018-Mar-05 10:28N 37°36' E 025°52'244 7.7
2018-Mar-04 03:01N 40°56' E 028°52'0 5.7
2018-Mar-04 03:00N 40°56' E 028°52'1 1.4
2018-Mar-04 02:30N 40°56' E 028°52'2 1.9
2018-Mar-04 01:21N 40°57' E 028°55'2 4.4
2018-Mar-04 01:00N 40°58' E 028°57'  
2018-Mar-01 17:08N 44°27' E 037°16'2 9.7
2018-Mar-01 16:55N 44°28' E 037°19'4 9.6
2018-Mar-01 16:31N 44°29' E 037°25'5 9.2
2018-Mar-01 16:00N 44°30' E 037°31'5 9.0
2018-Mar-01 15:30N 44°32' E 037°37'4 8.7
2018-Mar-01 15:01N 44°33' E 037°42'4 8.8
2018-Mar-01 14:31N 44°36' E 037°47'5 9.1
2018-Mar-01 14:01N 44°40' E 037°50'4 7.3
2018-Mar-01 13:31N 44°43' E 037°48'1 1.7
2018-Mar-01 12:59N 44°44' E 037°47'0 0.0
2018-Mar-01 12:29N 44°44' E 037°47'0 0.0
2018-Mar-01 11:59N 44°44' E 037°47'0 0.0
2018-Mar-01 11:29N 44°44' E 037°47'0 0.0
2018-Mar-01 10:59N 44°44' E 037°47'0 0.0
2018-Mar-01 10:26N 44°44' E 037°47'0 0.0
2018-Mar-01 09:59N 44°44' E 037°47'0 0.0
2018-Mar-01 09:28N 44°44' E 037°47'0 0.0
2018-Mar-01 08:58N 44°44' E 037°47'0 0.0
2018-Mar-01 08:28N 44°44' E 037°47'0 0.0
2018-Mar-01 07:58N 44°44' E 037°47'0 0.0
2018-Mar-01 07:28N 44°44' E 037°47'0 0.0
2018-Mar-01 06:58N 44°44' E 037°47'0 0.0
2018-Mar-01 06:28N 44°44' E 037°47'0 0.0
2018-Mar-01 05:58N 44°44' E 037°47'  
2018-Feb-26 03:45N 44°44' E 037°47'0 0.0
2018-Feb-26 03:30N 44°44' E 037°47'0 0.0
2018-Feb-26 03:00N 44°44' E 037°47'1 1.7
2018-Feb-26 02:30N 44°43' E 037°48'3 6.7
2018-Feb-26 02:00N 44°40' E 037°50'3 6.4
2018-Feb-26 01:30N 44°37' E 037°51'3 6.3
2018-Feb-26 01:00N 44°35' E 037°54'2 3.2
2018-Feb-26 00:30N 44°34' E 037°56'0 0.0
2018-Feb-26 00:00N 44°34' E 037°56'0 0.1
2018-Feb-25 23:30N 44°34' E 037°56'0 0.1
2018-Feb-25 22:54N 44°34' E 037°56'0 0.0
2018-Feb-25 22:27N 44°34' E 037°56'0 0.1
2018-Feb-25 22:00N 44°34' E 037°56'  

Dump ship's entire track history